sensor_id;sensor_type;location;lat;lon;timestamp;P1;durP1;ratioP1;P2;durP2;ratioP2
21305;SDS011;10812;51.838;5.838;2023-03-14T00:02:32;3.77;;;1.87;;
21305;SDS011;10812;51.838;5.838;2023-03-14T00:05:00;3.37;;;1.40;;
21305;SDS011;10812;51.838;5.838;2023-03-14T00:07:28;4.57;;;1.80;;
21305;SDS011;10812;51.838;5.838;2023-03-14T00:10:00;3.87;;;1.80;;
21305;SDS011;10812;51.838;5.838;2023-03-14T00:12:32;6.70;;;1.90;;
21305;SDS011;10812;51.838;5.838;2023-03-14T00:15:00;7.07;;;1.80;;
21305;SDS011;10812;51.838;5.838;2023-03-14T00:17:29;5.83;;;1.83;;
21305;SDS011;10812;51.838;5.838;2023-03-14T00:19:58;7.70;;;1.80;;
21305;SDS011;10812;51.838;5.838;2023-03-14T00:22:30;6.33;;;2.33;;
21305;SDS011;10812;51.838;5.838;2023-03-14T00:24:59;5.97;;;1.70;;
21305;SDS011;10812;51.838;5.838;2023-03-14T00:27:27;6.23;;;1.70;;
21305;SDS011;10812;51.838;5.838;2023-03-14T00:29:57;5.20;;;1.30;;
21305;SDS011;10812;51.838;5.838;2023-03-14T00:32:25;6.77;;;2.30;;
21305;SDS011;10812;51.838;5.838;2023-03-14T00:34:53;4.20;;;1.47;;
21305;SDS011;10812;51.838;5.838;2023-03-14T00:37:21;5.07;;;1.30;;
21305;SDS011;10812;51.838;5.838;2023-03-14T00:39:50;4.60;;;1.63;;
21305;SDS011;10812;51.838;5.838;2023-03-14T00:42:19;4.03;;;1.70;;
21305;SDS011;10812;51.838;5.838;2023-03-14T00:44:47;6.50;;;1.80;;
21305;SDS011;10812;51.838;5.838;2023-03-14T00:47:16;4.60;;;2.03;;
21305;SDS011;10812;51.838;5.838;2023-03-14T00:49:44;3.37;;;1.40;;
21305;SDS011;10812;51.838;5.838;2023-03-14T00:52:13;5.07;;;1.80;;
21305;SDS011;10812;51.838;5.838;2023-03-14T00:54:41;4.93;;;1.50;;
21305;SDS011;10812;51.838;5.838;2023-03-14T00:57:09;7.30;;;1.90;;
21305;SDS011;10812;51.838;5.838;2023-03-14T00:59:37;3.40;;;1.43;;
21305;SDS011;10812;51.838;5.838;2023-03-14T01:02:05;8.30;;;1.87;;
21305;SDS011;10812;51.838;5.838;2023-03-14T01:04:35;7.30;;;1.70;;
21305;SDS011;10812;51.838;5.838;2023-03-14T01:07:04;4.37;;;1.53;;
21305;SDS011;10812;51.838;5.838;2023-03-14T01:09:32;3.27;;;1.33;;
21305;SDS011;10812;51.838;5.838;2023-03-14T01:12:00;4.23;;;1.40;;
21305;SDS011;10812;51.838;5.838;2023-03-14T01:14:28;4.00;;;1.47;;
21305;SDS011;10812;51.838;5.838;2023-03-14T01:16:56;4.37;;;1.30;;
21305;SDS011;10812;51.838;5.838;2023-03-14T01:19:27;2.47;;;1.33;;
21305;SDS011;10812;51.838;5.838;2023-03-14T01:21:56;6.27;;;1.87;;
21305;SDS011;10812;51.838;5.838;2023-03-14T01:24:25;3.63;;;1.40;;
21305;SDS011;10812;51.838;5.838;2023-03-14T01:26:53;5.83;;;1.40;;
21305;SDS011;10812;51.838;5.838;2023-03-14T01:29:21;4.30;;;1.10;;
21305;SDS011;10812;51.838;5.838;2023-03-14T01:31:49;10.17;;;1.40;;
21305;SDS011;10812;51.838;5.838;2023-03-14T01:34:17;3.57;;;1.00;;
21305;SDS011;10812;51.838;5.838;2023-03-14T01:36:45;5.83;;;1.30;;
21305;SDS011;10812;51.838;5.838;2023-03-14T01:39:15;4.83;;;1.30;;
21305;SDS011;10812;51.838;5.838;2023-03-14T01:41:43;4.70;;;1.30;;
21305;SDS011;10812;51.838;5.838;2023-03-14T01:44:11;8.27;;;1.70;;
21305;SDS011;10812;51.838;5.838;2023-03-14T01:46:40;8.73;;;1.67;;
21305;SDS011;10812;51.838;5.838;2023-03-14T01:49:19;5.37;;;1.50;;
21305;SDS011;10812;51.838;5.838;2023-03-14T01:51:53;6.47;;;1.03;;
21305;SDS011;10812;51.838;5.838;2023-03-14T01:54:26;5.03;;;1.70;;
21305;SDS011;10812;51.838;5.838;2023-03-14T01:56:59;3.13;;;1.00;;
21305;SDS011;10812;51.838;5.838;2023-03-14T01:59:32;4.63;;;1.10;;
21305;SDS011;10812;51.838;5.838;2023-03-14T02:02:02;5.07;;;1.10;;
21305;SDS011;10812;51.838;5.838;2023-03-14T02:04:34;4.20;;;1.20;;
21305;SDS011;10812;51.838;5.838;2023-03-14T02:07:05;5.93;;;1.23;;
21305;SDS011;10812;51.838;5.838;2023-03-14T02:09:39;6.20;;;1.30;;
21305;SDS011;10812;51.838;5.838;2023-03-14T02:12:08;3.43;;;1.13;;
21305;SDS011;10812;51.838;5.838;2023-03-14T02:14:38;2.43;;;0.90;;
21305;SDS011;10812;51.838;5.838;2023-03-14T02:17:08;4.00;;;1.60;;
21305;SDS011;10812;51.838;5.838;2023-03-14T02:19:43;4.57;;;1.20;;
21305;SDS011;10812;51.838;5.838;2023-03-14T02:22:23;4.93;;;1.40;;
21305;SDS011;10812;51.838;5.838;2023-03-14T02:24:54;3.00;;;0.83;;
21305;SDS011;10812;51.838;5.838;2023-03-14T02:27:29;2.27;;;0.80;;
21305;SDS011;10812;51.838;5.838;2023-03-14T02:29:59;7.70;;;1.43;;
21305;SDS011;10812;51.838;5.838;2023-03-14T02:32:29;2.03;;;0.90;;
21305;SDS011;10812;51.838;5.838;2023-03-14T02:35:00;3.27;;;1.30;;
21305;SDS011;10812;51.838;5.838;2023-03-14T02:37:32;7.57;;;1.27;;
21305;SDS011;10812;51.838;5.838;2023-03-14T02:40:06;3.77;;;1.10;;
21305;SDS011;10812;51.838;5.838;2023-03-14T02:42:36;5.50;;;1.23;;
21305;SDS011;10812;51.838;5.838;2023-03-14T02:48:11;5.87;;;1.97;;
21305;SDS011;10812;51.838;5.838;2023-03-14T02:50:43;3.30;;;1.33;;
21305;SDS011;10812;51.838;5.838;2023-03-14T02:53:15;5.43;;;1.93;;
21305;SDS011;10812;51.838;5.838;2023-03-14T02:55:45;5.43;;;1.60;;
21305;SDS011;10812;51.838;5.838;2023-03-14T02:58:15;5.50;;;2.00;;
21305;SDS011;10812;51.838;5.838;2023-03-14T03:06:04;3.40;;;1.40;;
21305;SDS011;10812;51.838;5.838;2023-03-14T03:08:33;5.93;;;1.77;;
21305;SDS011;10812;51.838;5.838;2023-03-14T03:11:02;9.87;;;1.60;;
21305;SDS011;10812;51.838;5.838;2023-03-14T03:28:48;6.60;;;2.07;;
21305;SDS011;10812;51.838;5.838;2023-03-14T03:31:18;6.37;;;2.30;;
21305;SDS011;10812;51.838;5.838;2023-03-14T03:33:46;12.07;;;2.90;;
21305;SDS011;10812;51.838;5.838;2023-03-14T03:36:14;9.30;;;1.90;;
21305;SDS011;10812;51.838;5.838;2023-03-14T03:38:42;9.03;;;2.07;;
21305;SDS011;10812;51.838;5.838;2023-03-14T03:41:10;8.90;;;2.17;;
21305;SDS011;10812;51.838;5.838;2023-03-14T03:43:38;8.80;;;2.33;;
21305;SDS011;10812;51.838;5.838;2023-03-14T03:46:08;7.67;;;1.60;;
21305;SDS011;10812;51.838;5.838;2023-03-14T03:48:36;7.87;;;1.90;;
21305;SDS011;10812;51.838;5.838;2023-03-14T03:51:05;5.93;;;1.77;;
21305;SDS011;10812;51.838;5.838;2023-03-14T03:53:33;6.37;;;2.17;;
21305;SDS011;10812;51.838;5.838;2023-03-14T03:56:01;6.47;;;1.50;;
21305;SDS011;10812;51.838;5.838;2023-03-14T03:58:30;5.60;;;1.57;;
21305;SDS011;10812;51.838;5.838;2023-03-14T04:00:58;3.70;;;1.47;;
21305;SDS011;10812;51.838;5.838;2023-03-14T04:03:28;7.40;;;1.57;;
21305;SDS011;10812;51.838;5.838;2023-03-14T04:05:59;6.83;;;1.90;;
21305;SDS011;10812;51.838;5.838;2023-03-14T04:08:28;7.47;;;2.17;;
21305;SDS011;10812;51.838;5.838;2023-03-14T04:10:57;9.23;;;2.30;;
21305;SDS011;10812;51.838;5.838;2023-03-14T04:13:27;5.73;;;1.73;;
21305;SDS011;10812;51.838;5.838;2023-03-14T04:15:56;5.07;;;2.10;;
21305;SDS011;10812;51.838;5.838;2023-03-14T04:18:24;11.23;;;2.27;;
21305;SDS011;10812;51.838;5.838;2023-03-14T04:20:54;7.57;;;1.90;;
21305;SDS011;10812;51.838;5.838;2023-03-14T04:23:23;8.90;;;2.30;;
21305;SDS011;10812;51.838;5.838;2023-03-14T04:25:52;4.50;;;1.17;;
21305;SDS011;10812;51.838;5.838;2023-03-14T04:28:20;8.77;;;2.50;;
21305;SDS011;10812;51.838;5.838;2023-03-14T04:30:48;8.93;;;3.00;;
21305;SDS011;10812;51.838;5.838;2023-03-14T04:33:17;5.40;;;2.10;;
21305;SDS011;10812;51.838;5.838;2023-03-14T04:35:45;6.83;;;2.07;;
21305;SDS011;10812;51.838;5.838;2023-03-14T04:38:15;10.27;;;2.90;;
21305;SDS011;10812;51.838;5.838;2023-03-14T04:40:43;7.23;;;2.60;;
21305;SDS011;10812;51.838;5.838;2023-03-14T04:43:11;8.73;;;1.93;;
21305;SDS011;10812;51.838;5.838;2023-03-14T04:45:41;5.10;;;1.63;;
21305;SDS011;10812;51.838;5.838;2023-03-14T04:48:09;6.47;;;1.90;;
21305;SDS011;10812;51.838;5.838;2023-03-14T04:50:38;8.50;;;1.90;;
21305;SDS011;10812;51.838;5.838;2023-03-14T04:53:07;11.30;;;3.17;;
21305;SDS011;10812;51.838;5.838;2023-03-14T04:55:36;4.03;;;1.73;;
21305;SDS011;10812;51.838;5.838;2023-03-14T04:58:04;7.30;;;2.30;;
21305;SDS011;10812;51.838;5.838;2023-03-14T05:00:32;6.97;;;1.97;;
21305;SDS011;10812;51.838;5.838;2023-03-14T05:03:02;7.57;;;2.50;;
21305;SDS011;10812;51.838;5.838;2023-03-14T05:05:30;5.37;;;1.53;;
21305;SDS011;10812;51.838;5.838;2023-03-14T05:07:58;5.70;;;1.30;;
21305;SDS011;10812;51.838;5.838;2023-03-14T05:10:26;4.03;;;1.90;;
21305;SDS011;10812;51.838;5.838;2023-03-14T05:12:56;6.20;;;2.20;;
21305;SDS011;10812;51.838;5.838;2023-03-14T05:18:32;7.87;;;2.57;;
21305;SDS011;10812;51.838;5.838;2023-03-14T05:21:01;8.87;;;3.03;;
21305;SDS011;10812;51.838;5.838;2023-03-14T05:23:29;4.53;;;2.27;;
21305;SDS011;10812;51.838;5.838;2023-03-14T05:25:57;6.47;;;2.40;;
21305;SDS011;10812;51.838;5.838;2023-03-14T05:28:27;7.70;;;2.23;;
21305;SDS011;10812;51.838;5.838;2023-03-14T05:30:55;7.60;;;2.07;;
21305;SDS011;10812;51.838;5.838;2023-03-14T05:48:49;2.27;;;1.20;;
21305;SDS011;10812;51.838;5.838;2023-03-14T05:51:17;3.37;;;1.20;;
21305;SDS011;10812;51.838;5.838;2023-03-14T05:53:45;5.43;;;1.17;;
21305;SDS011;10812;51.838;5.838;2023-03-14T05:56:13;1.80;;;0.60;;
21305;SDS011;10812;51.838;5.838;2023-03-14T05:58:41;2.23;;;1.13;;
21305;SDS011;10812;51.838;5.838;2023-03-14T06:01:09;2.93;;;1.23;;
21305;SDS011;10812;51.838;5.838;2023-03-14T06:03:38;2.77;;;1.00;;
21305;SDS011;10812;51.838;5.838;2023-03-14T06:06:08;2.00;;;0.93;;
21305;SDS011;10812;51.838;5.838;2023-03-14T06:08:36;4.83;;;1.23;;
21305;SDS011;10812;51.838;5.838;2023-03-14T06:11:04;2.57;;;1.20;;
21305;SDS011;10812;51.838;5.838;2023-03-14T06:13:33;2.27;;;1.37;;
21305;SDS011;10812;51.838;5.838;2023-03-14T06:16:01;2.30;;;0.97;;
21305;SDS011;10812;51.838;5.838;2023-03-14T06:18:29;1.30;;;1.20;;
21305;SDS011;10812;51.838;5.838;2023-03-14T06:20:58;4.87;;;1.47;;
21305;SDS011;10812;51.838;5.838;2023-03-14T06:23:27;2.73;;;1.30;;
21305;SDS011;10812;51.838;5.838;2023-03-14T06:25:56;4.20;;;1.63;;
21305;SDS011;10812;51.838;5.838;2023-03-14T06:28:25;7.40;;;1.70;;
21305;SDS011;10812;51.838;5.838;2023-03-14T06:30:53;5.00;;;1.50;;
21305;SDS011;10812;51.838;5.838;2023-03-14T06:33:21;2.60;;;1.37;;
21305;SDS011;10812;51.838;5.838;2023-03-14T06:35:49;4.53;;;2.10;;
21305;SDS011;10812;51.838;5.838;2023-03-14T06:38:18;3.07;;;1.87;;
21305;SDS011;10812;51.838;5.838;2023-03-14T06:40:47;5.30;;;1.50;;
21305;SDS011;10812;51.838;5.838;2023-03-14T06:43:15;3.73;;;1.63;;
21305;SDS011;10812;51.838;5.838;2023-03-14T06:45:43;6.10;;;1.93;;
21305;SDS011;10812;51.838;5.838;2023-03-14T06:48:12;4.97;;;2.10;;
21305;SDS011;10812;51.838;5.838;2023-03-14T06:50:40;3.27;;;2.27;;
21305;SDS011;10812;51.838;5.838;2023-03-14T06:53:09;5.20;;;1.67;;
21305;SDS011;10812;51.838;5.838;2023-03-14T06:55:37;3.53;;;1.90;;
21305;SDS011;10812;51.838;5.838;2023-03-14T06:58:07;3.77;;;2.10;;
21305;SDS011;10812;51.838;5.838;2023-03-14T07:00:35;3.03;;;2.00;;
21305;SDS011;10812;51.838;5.838;2023-03-14T07:03:03;2.40;;;1.67;;
21305;SDS011;10812;51.838;5.838;2023-03-14T07:05:31;5.07;;;2.47;;
21305;SDS011;10812;51.838;5.838;2023-03-14T07:07:59;4.50;;;2.80;;
21305;SDS011;10812;51.838;5.838;2023-03-14T07:10:27;5.27;;;2.60;;
21305;SDS011;10812;51.838;5.838;2023-03-14T07:12:56;5.83;;;2.27;;
21305;SDS011;10812;51.838;5.838;2023-03-14T07:15:25;5.40;;;2.63;;
21305;SDS011;10812;51.838;5.838;2023-03-14T07:17:53;3.47;;;2.10;;
21305;SDS011;10812;51.838;5.838;2023-03-14T07:20:22;3.83;;;2.30;;
21305;SDS011;10812;51.838;5.838;2023-03-14T07:22:50;3.73;;;2.00;;
21305;SDS011;10812;51.838;5.838;2023-03-14T07:25:18;3.90;;;2.43;;
21305;SDS011;10812;51.838;5.838;2023-03-14T07:27:47;3.63;;;2.33;;
21305;SDS011;10812;51.838;5.838;2023-03-14T07:30:15;6.60;;;2.43;;
21305;SDS011;10812;51.838;5.838;2023-03-14T07:32:45;5.97;;;2.80;;
21305;SDS011;10812;51.838;5.838;2023-03-14T07:35:13;1.83;;;1.20;;
21305;SDS011;10812;51.838;5.838;2023-03-14T07:37:41;2.37;;;1.40;;
21305;SDS011;10812;51.838;5.838;2023-03-14T07:40:10;1.03;;;0.60;;
21305;SDS011;10812;51.838;5.838;2023-03-14T07:42:41;2.77;;;0.80;;
21305;SDS011;10812;51.838;5.838;2023-03-14T07:45:10;7.87;;;1.30;;
21305;SDS011;10812;51.838;5.838;2023-03-14T07:47:38;2.50;;;0.83;;
21305;SDS011;10812;51.838;5.838;2023-03-14T07:50:08;2.30;;;0.67;;
21305;SDS011;10812;51.838;5.838;2023-03-14T07:52:37;1.07;;;0.80;;
21305;SDS011;10812;51.838;5.838;2023-03-14T07:55:06;2.57;;;1.10;;
21305;SDS011;10812;51.838;5.838;2023-03-14T07:57:34;4.40;;;1.40;;
21305;SDS011;10812;51.838;5.838;2023-03-14T08:00:02;0.80;;;0.60;;
21305;SDS011;10812;51.838;5.838;2023-03-14T08:02:33;1.57;;;0.70;;
21305;SDS011;10812;51.838;5.838;2023-03-14T08:05:02;4.17;;;0.77;;
21305;SDS011;10812;51.838;5.838;2023-03-14T08:07:32;1.77;;;0.77;;
21305;SDS011;10812;51.838;5.838;2023-03-14T08:10:00;4.07;;;0.70;;
21305;SDS011;10812;51.838;5.838;2023-03-14T08:12:29;3.17;;;0.90;;
21305;SDS011;10812;51.838;5.838;2023-03-14T08:14:57;1.60;;;0.73;;
21305;SDS011;10812;51.838;5.838;2023-03-14T08:17:26;0.67;;;0.67;;
21305;SDS011;10812;51.838;5.838;2023-03-14T08:19:54;5.23;;;1.30;;
21305;SDS011;10812;51.838;5.838;2023-03-14T08:22:22;2.87;;;1.03;;
21305;SDS011;10812;51.838;5.838;2023-03-14T08:24:52;1.47;;;1.03;;
21305;SDS011;10812;51.838;5.838;2023-03-14T08:27:20;3.00;;;1.33;;
21305;SDS011;10812;51.838;5.838;2023-03-14T08:29:48;3.40;;;1.40;;
21305;SDS011;10812;51.838;5.838;2023-03-14T08:32:16;4.63;;;1.23;;
21305;SDS011;10812;51.838;5.838;2023-03-14T08:34:46;3.03;;;1.20;;
21305;SDS011;10812;51.838;5.838;2023-03-14T08:37:14;2.17;;;1.10;;
21305;SDS011;10812;51.838;5.838;2023-03-14T08:39:53;2.17;;;0.97;;
21305;SDS011;10812;51.838;5.838;2023-03-14T08:42:21;2.27;;;1.00;;
21305;SDS011;10812;51.838;5.838;2023-03-14T08:44:50;1.40;;;1.00;;
21305;SDS011;10812;51.838;5.838;2023-03-14T08:47:18;1.03;;;0.70;;
21305;SDS011;10812;51.838;5.838;2023-03-14T08:49:46;1.07;;;0.70;;
21305;SDS011;10812;51.838;5.838;2023-03-14T08:52:15;1.63;;;0.67;;
21305;SDS011;10812;51.838;5.838;2023-03-14T08:54:43;0.60;;;0.57;;
21305;SDS011;10812;51.838;5.838;2023-03-14T08:57:13;1.13;;;0.53;;
21305;SDS011;10812;51.838;5.838;2023-03-14T08:59:41;4.03;;;1.10;;
21305;SDS011;10812;51.838;5.838;2023-03-14T09:02:10;4.63;;;1.23;;
21305;SDS011;10812;51.838;5.838;2023-03-14T09:04:39;2.50;;;0.77;;
21305;SDS011;10812;51.838;5.838;2023-03-14T09:07:07;2.70;;;0.57;;
21305;SDS011;10812;51.838;5.838;2023-03-14T09:09:35;1.23;;;0.50;;
21305;SDS011;10812;51.838;5.838;2023-03-14T09:12:04;4.77;;;1.50;;
21305;SDS011;10812;51.838;5.838;2023-03-14T09:14:34;2.50;;;0.80;;
21305;SDS011;10812;51.838;5.838;2023-03-14T09:17:03;3.70;;;0.90;;
21305;SDS011;10812;51.838;5.838;2023-03-14T09:19:31;3.03;;;0.87;;
21305;SDS011;10812;51.838;5.838;2023-03-14T09:21:59;1.57;;;0.50;;
21305;SDS011;10812;51.838;5.838;2023-03-14T09:24:27;4.30;;;0.63;;
21305;SDS011;10812;51.838;5.838;2023-03-14T09:26:56;4.90;;;1.10;;
21305;SDS011;10812;51.838;5.838;2023-03-14T09:29:24;1.40;;;0.23;;
21305;SDS011;10812;51.838;5.838;2023-03-14T09:31:54;3.73;;;0.47;;
21305;SDS011;10812;51.838;5.838;2023-03-14T09:34:25;5.43;;;0.73;;
21305;SDS011;10812;51.838;5.838;2023-03-14T09:36:53;1.50;;;0.57;;
21305;SDS011;10812;51.838;5.838;2023-03-14T09:39:21;1.83;;;0.70;;
21305;SDS011;10812;51.838;5.838;2023-03-14T09:41:50;4.00;;;0.60;;
21305;SDS011;10812;51.838;5.838;2023-03-14T09:44:21;2.07;;;0.43;;
21305;SDS011;10812;51.838;5.838;2023-03-14T09:46:54;2.07;;;0.53;;
21305;SDS011;10812;51.838;5.838;2023-03-14T09:49:28;1.70;;;0.30;;
21305;SDS011;10812;51.838;5.838;2023-03-14T09:51:59;3.43;;;0.60;;
21305;SDS011;10812;51.838;5.838;2023-03-14T09:54:30;0.57;;;0.30;;
21305;SDS011;10812;51.838;5.838;2023-03-14T09:57:02;0.70;;;0.40;;
21305;SDS011;10812;51.838;5.838;2023-03-14T09:59:31;1.33;;;0.70;;
21305;SDS011;10812;51.838;5.838;2023-03-14T10:02:05;2.23;;;0.40;;
21305;SDS011;10812;51.838;5.838;2023-03-14T10:04:42;1.63;;;0.50;;
21305;SDS011;10812;51.838;5.838;2023-03-14T10:07:13;1.60;;;0.43;;
21305;SDS011;10812;51.838;5.838;2023-03-14T10:09:43;1.20;;;0.50;;
21305;SDS011;10812;51.838;5.838;2023-03-14T10:12:11;2.33;;;0.40;;
21305;SDS011;10812;51.838;5.838;2023-03-14T10:14:44;2.27;;;0.63;;
21305;SDS011;10812;51.838;5.838;2023-03-14T10:17:16;2.43;;;0.80;;
21305;SDS011;10812;51.838;5.838;2023-03-14T10:19:52;3.10;;;0.70;;
21305;SDS011;10812;51.838;5.838;2023-03-14T10:22:23;5.10;;;0.80;;
21305;SDS011;10812;51.838;5.838;2023-03-14T10:24:55;3.67;;;1.03;;
21305;SDS011;10812;51.838;5.838;2023-03-14T10:27:27;1.93;;;0.90;;
21305;SDS011;10812;51.838;5.838;2023-03-14T10:29:57;6.40;;;1.10;;
21305;SDS011;10812;51.838;5.838;2023-03-14T10:32:31;4.07;;;1.30;;
21305;SDS011;10812;51.838;5.838;2023-03-14T10:37:48;11.17;;;1.90;;
21305;SDS011;10812;51.838;5.838;2023-03-14T10:40:20;4.47;;;1.53;;
21305;SDS011;10812;51.838;5.838;2023-03-14T10:42:54;5.40;;;1.63;;
21305;SDS011;10812;51.838;5.838;2023-03-14T10:45:29;7.37;;;1.70;;
21305;SDS011;10812;51.838;5.838;2023-03-14T10:48:13;7.33;;;1.73;;
21305;SDS011;10812;51.838;5.838;2023-03-14T10:50:48;11.73;;;2.60;;
21305;SDS011;10812;51.838;5.838;2023-03-14T10:53:20;13.50;;;1.73;;
21305;SDS011;10812;51.838;5.838;2023-03-14T10:55:52;6.10;;;1.60;;
21305;SDS011;10812;51.838;5.838;2023-03-14T10:58:24;12.77;;;2.07;;
21305;SDS011;10812;51.838;5.838;2023-03-14T11:00:58;9.57;;;1.90;;
21305;SDS011;10812;51.838;5.838;2023-03-14T11:03:35;11.40;;;1.70;;
21305;SDS011;10812;51.838;5.838;2023-03-14T11:06:09;4.93;;;1.77;;
21305;SDS011;10812;51.838;5.838;2023-03-14T11:08:42;7.63;;;1.80;;
21305;SDS011;10812;51.838;5.838;2023-03-14T11:11:17;8.53;;;1.80;;
21305;SDS011;10812;51.838;5.838;2023-03-14T11:13:51;3.03;;;1.23;;
21305;SDS011;10812;51.838;5.838;2023-03-14T11:16:26;5.60;;;1.17;;
21305;SDS011;10812;51.838;5.838;2023-03-14T11:19:20;8.10;;;2.03;;
21305;SDS011;10812;51.838;5.838;2023-03-14T11:22:02;13.80;;;2.70;;
21305;SDS011;10812;51.838;5.838;2023-03-14T11:24:39;14.33;;;3.27;;
21305;SDS011;10812;51.838;5.838;2023-03-14T11:27:16;12.83;;;2.50;;
21305;SDS011;10812;51.838;5.838;2023-03-14T11:29:50;17.53;;;2.30;;
21305;SDS011;10812;51.838;5.838;2023-03-14T11:32:35;5.43;;;1.70;;
21305;SDS011;10812;51.838;5.838;2023-03-14T11:35:14;9.13;;;2.00;;
21305;SDS011;10812;51.838;5.838;2023-03-14T11:37:47;7.07;;;1.57;;
21305;SDS011;10812;51.838;5.838;2023-03-14T11:40:21;15.27;;;2.10;;
21305;SDS011;10812;51.838;5.838;2023-03-14T11:42:53;13.27;;;3.03;;
21305;SDS011;10812;51.838;5.838;2023-03-14T11:45:28;7.53;;;1.93;;
21305;SDS011;10812;51.838;5.838;2023-03-14T11:48:07;13.27;;;2.40;;
21305;SDS011;10812;51.838;5.838;2023-03-14T11:50:45;6.57;;;1.70;;
21305;SDS011;10812;51.838;5.838;2023-03-14T11:53:18;14.80;;;2.67;;
21305;SDS011;10812;51.838;5.838;2023-03-14T11:55:49;11.27;;;2.30;;
21305;SDS011;10812;51.838;5.838;2023-03-14T11:58:20;13.13;;;3.00;;
21305;SDS011;10812;51.838;5.838;2023-03-14T12:00:53;9.13;;;2.00;;
21305;SDS011;10812;51.838;5.838;2023-03-14T12:03:25;15.27;;;2.70;;
21305;SDS011;10812;51.838;5.838;2023-03-14T12:06:00;12.70;;;2.20;;
21305;SDS011;10812;51.838;5.838;2023-03-14T12:08:42;8.97;;;2.07;;
21305;SDS011;10812;51.838;5.838;2023-03-14T12:11:14;9.93;;;2.13;;
21305;SDS011;10812;51.838;5.838;2023-03-14T12:13:58;9.97;;;2.03;;
21305;SDS011;10812;51.838;5.838;2023-03-14T12:16:31;7.90;;;2.10;;
21305;SDS011;10812;51.838;5.838;2023-03-14T12:22:01;8.47;;;1.93;;
21305;SDS011;10812;51.838;5.838;2023-03-14T12:24:44;5.50;;;2.10;;
21305;SDS011;10812;51.838;5.838;2023-03-14T12:30:14;7.40;;;1.53;;
21305;SDS011;10812;51.838;5.838;2023-03-14T12:36:01;5.53;;;1.73;;
21305;SDS011;10812;51.838;5.838;2023-03-14T12:41:40;11.63;;;2.70;;
21305;SDS011;10812;51.838;5.838;2023-03-14T12:50:25;7.07;;;1.50;;
21305;SDS011;10812;51.838;5.838;2023-03-14T12:56:17;7.47;;;1.50;;
21305;SDS011;10812;51.838;5.838;2023-03-14T13:02:10;11.83;;;1.63;;
21305;SDS011;10812;51.838;5.838;2023-03-14T13:05:03;7.73;;;1.70;;
21305;SDS011;10812;51.838;5.838;2023-03-14T13:10:38;9.13;;;1.40;;
21305;SDS011;10812;51.838;5.838;2023-03-14T13:13:13;5.37;;;1.40;;
21305;SDS011;10812;51.838;5.838;2023-03-14T13:15:46;6.40;;;1.40;;
21305;SDS011;10812;51.838;5.838;2023-03-14T13:18:23;8.40;;;2.10;;
21305;SDS011;10812;51.838;5.838;2023-03-14T13:20:57;8.17;;;1.60;;
21305;SDS011;10812;51.838;5.838;2023-03-14T13:23:29;6.93;;;1.53;;
21305;SDS011;10812;51.838;5.838;2023-03-14T13:25:59;4.77;;;1.03;;
21305;SDS011;10812;51.838;5.838;2023-03-14T13:28:29;6.70;;;1.30;;
21305;SDS011;10812;51.838;5.838;2023-03-14T13:30:59;5.57;;;1.47;;
21305;SDS011;10812;51.838;5.838;2023-03-14T13:33:31;7.27;;;1.83;;
21305;SDS011;10812;51.838;5.838;2023-03-14T13:36:01;7.37;;;1.20;;
21305;SDS011;10812;51.838;5.838;2023-03-14T13:38:31;5.60;;;1.67;;
21305;SDS011;10812;51.838;5.838;2023-03-14T13:41:03;6.10;;;1.40;;
21305;SDS011;10812;51.838;5.838;2023-03-14T13:43:33;4.50;;;1.10;;
21305;SDS011;10812;51.838;5.838;2023-03-14T13:46:11;8.47;;;1.63;;
21305;SDS011;10812;51.838;5.838;2023-03-14T13:48:43;6.77;;;1.10;;
21305;SDS011;10812;51.838;5.838;2023-03-14T13:51:16;2.97;;;0.43;;
21305;SDS011;10812;51.838;5.838;2023-03-14T13:53:46;5.93;;;1.30;;
21305;SDS011;10812;51.838;5.838;2023-03-14T13:56:16;3.57;;;1.10;;
21305;SDS011;10812;51.838;5.838;2023-03-14T13:58:45;6.37;;;1.33;;
21305;SDS011;10812;51.838;5.838;2023-03-14T14:01:14;4.27;;;0.93;;
21305;SDS011;10812;51.838;5.838;2023-03-14T14:03:46;3.27;;;0.97;;
21305;SDS011;10812;51.838;5.838;2023-03-14T14:06:28;4.43;;;0.93;;
21305;SDS011;10812;51.838;5.838;2023-03-14T14:08:59;4.57;;;1.20;;
21305;SDS011;10812;51.838;5.838;2023-03-14T14:11:34;7.83;;;2.27;;
21305;SDS011;10812;51.838;5.838;2023-03-14T14:14:19;3.77;;;1.27;;
21305;SDS011;10812;51.838;5.838;2023-03-14T14:16:50;4.73;;;1.10;;
21305;SDS011;10812;51.838;5.838;2023-03-14T14:19:21;5.63;;;1.93;;
21305;SDS011;10812;51.838;5.838;2023-03-14T14:21:51;2.63;;;0.90;;
21305;SDS011;10812;51.838;5.838;2023-03-14T14:24:20;5.33;;;0.83;;
21305;SDS011;10812;51.838;5.838;2023-03-14T14:26:51;3.33;;;1.27;;
21305;SDS011;10812;51.838;5.838;2023-03-14T14:29:23;3.10;;;0.80;;
21305;SDS011;10812;51.838;5.838;2023-03-14T14:32:08;3.70;;;1.17;;
21305;SDS011;10812;51.838;5.838;2023-03-14T14:34:43;3.33;;;1.07;;
21305;SDS011;10812;51.838;5.838;2023-03-14T14:37:19;5.90;;;1.20;;
21305;SDS011;10812;51.838;5.838;2023-03-14T14:39:53;4.17;;;0.93;;
21305;SDS011;10812;51.838;5.838;2023-03-14T14:42:24;4.60;;;0.90;;
21305;SDS011;10812;51.838;5.838;2023-03-14T14:44:55;3.43;;;1.53;;
21305;SDS011;10812;51.838;5.838;2023-03-14T14:47:24;4.10;;;1.13;;
21305;SDS011;10812;51.838;5.838;2023-03-14T14:49:58;4.67;;;1.20;;
21305;SDS011;10812;51.838;5.838;2023-03-14T14:52:33;5.00;;;0.60;;
21305;SDS011;10812;51.838;5.838;2023-03-14T14:55:11;5.03;;;1.40;;
21305;SDS011;10812;51.838;5.838;2023-03-14T14:57:41;3.83;;;1.03;;
21305;SDS011;10812;51.838;5.838;2023-03-14T15:00:17;6.97;;;1.30;;
21305;SDS011;10812;51.838;5.838;2023-03-14T15:02:48;5.17;;;1.30;;
21305;SDS011;10812;51.838;5.838;2023-03-14T15:05:22;4.20;;;1.27;;
21305;SDS011;10812;51.838;5.838;2023-03-14T15:07:51;5.33;;;1.27;;
21305;SDS011;10812;51.838;5.838;2023-03-14T15:10:20;4.90;;;1.20;;
21305;SDS011;10812;51.838;5.838;2023-03-14T15:12:50;6.53;;;1.47;;
21305;SDS011;10812;51.838;5.838;2023-03-14T15:15:18;7.87;;;1.43;;
21305;SDS011;10812;51.838;5.838;2023-03-14T15:17:47;5.17;;;1.43;;
21305;SDS011;10812;51.838;5.838;2023-03-14T15:20:16;8.90;;;1.40;;
21305;SDS011;10812;51.838;5.838;2023-03-14T15:22:47;2.77;;;1.10;;
21305;SDS011;10812;51.838;5.838;2023-03-14T15:25:15;2.30;;;0.80;;
21305;SDS011;10812;51.838;5.838;2023-03-14T15:28:04;3.57;;;1.63;;
21305;SDS011;10812;51.838;5.838;2023-03-14T15:30:40;4.07;;;0.83;;
21305;SDS011;10812;51.838;5.838;2023-03-14T15:33:09;2.67;;;0.90;;
21305;SDS011;10812;51.838;5.838;2023-03-14T15:35:37;5.97;;;1.13;;
21305;SDS011;10812;51.838;5.838;2023-03-14T15:38:08;4.50;;;1.10;;
21305;SDS011;10812;51.838;5.838;2023-03-14T15:40:38;6.63;;;1.53;;
21305;SDS011;10812;51.838;5.838;2023-03-14T15:43:07;2.83;;;0.80;;
21305;SDS011;10812;51.838;5.838;2023-03-14T15:45:35;4.70;;;1.93;;
21305;SDS011;10812;51.838;5.838;2023-03-14T15:48:04;5.13;;;1.33;;
21305;SDS011;10812;51.838;5.838;2023-03-14T15:50:32;5.27;;;1.10;;
21305;SDS011;10812;51.838;5.838;2023-03-14T15:53:00;2.77;;;1.20;;
21305;SDS011;10812;51.838;5.838;2023-03-14T15:55:29;2.80;;;0.70;;
21305;SDS011;10812;51.838;5.838;2023-03-14T15:57:57;4.03;;;0.80;;
21305;SDS011;10812;51.838;5.838;2023-03-14T16:00:28;5.13;;;1.10;;
21305;SDS011;10812;51.838;5.838;2023-03-14T16:02:58;5.63;;;0.90;;
21305;SDS011;10812;51.838;5.838;2023-03-14T16:05:26;1.70;;;0.83;;
21305;SDS011;10812;51.838;5.838;2023-03-14T16:07:55;7.53;;;1.10;;
21305;SDS011;10812;51.838;5.838;2023-03-14T16:10:23;5.67;;;1.03;;
21305;SDS011;10812;51.838;5.838;2023-03-14T16:12:52;4.87;;;0.93;;
21305;SDS011;10812;51.838;5.838;2023-03-14T16:15:20;7.13;;;1.17;;
21305;SDS011;10812;51.838;5.838;2023-03-14T16:17:51;3.00;;;0.90;;
21305;SDS011;10812;51.838;5.838;2023-03-14T16:20:19;3.67;;;0.97;;
21305;SDS011;10812;51.838;5.838;2023-03-14T16:22:47;2.23;;;0.77;;